createdAt,value
2019-05-11T00:02:14.220Z,29.93
2019-05-11T00:05:02.422Z,31.40
2019-05-11T00:07:50.880Z,31.47
2019-05-11T00:10:39.008Z,31.70
2019-05-11T00:13:27.710Z,30.30
2019-05-11T00:16:18.946Z,29.73
2019-05-11T00:19:05.303Z,29.77
2019-05-11T00:21:53.533Z,30.87
2019-05-11T00:24:41.891Z,31.17
2019-05-11T00:27:30.354Z,30.50
2019-05-11T00:30:18.454Z,32.03
2019-05-11T00:33:06.347Z,31.47
2019-05-11T00:35:55.191Z,31.27
2019-05-11T00:38:43.132Z,29.00
2019-05-11T00:41:31.376Z,32.80
2019-05-11T00:44:19.612Z,32.90
2019-05-11T00:47:07.371Z,33.73
2019-05-11T00:49:55.111Z,32.10
2019-05-11T00:52:43.132Z,35.07
2019-05-11T00:55:31.422Z,34.80
2019-05-11T00:58:19.660Z,33.60
2019-05-11T01:01:08.556Z,32.90
2019-05-11T01:03:56.822Z,34.03
2019-05-11T01:06:45.275Z,34.23
2019-05-11T01:09:32.842Z,36.00
2019-05-11T01:12:21.187Z,33.97
2019-05-11T01:15:10.142Z,32.80
2019-05-11T01:17:58.122Z,34.10
2019-05-11T01:20:46.568Z,36.10
2019-05-11T01:23:34.407Z,36.80
2019-05-11T01:26:22.635Z,37.50
2019-05-11T01:29:10.761Z,35.97
2019-05-11T01:31:59.064Z,36.00
2019-05-11T01:34:47.344Z,35.93
2019-05-11T01:37:36.110Z,37.83
2019-05-11T01:40:23.964Z,36.27
2019-05-11T01:43:11.436Z,37.17
2019-05-11T01:46:00.122Z,39.10
2019-05-11T01:48:49.026Z,36.27
2019-05-11T01:51:37.497Z,38.73
2019-05-11T01:54:25.915Z,37.50
2019-05-11T01:57:14.203Z,40.67
2019-05-11T02:00:02.339Z,39.60
2019-05-11T02:02:50.177Z,40.70
2019-05-11T02:05:38.876Z,38.47
2019-05-11T02:08:27.339Z,39.77
2019-05-11T02:11:16.378Z,36.93
2019-05-11T02:14:04.811Z,37.57
2019-05-11T02:16:52.671Z,40.03
2019-05-11T02:19:41.583Z,38.80
2019-05-11T02:22:29.800Z,39.50
2019-05-11T02:25:18.103Z,40.37
2019-05-11T02:28:06.926Z,41.17
2019-05-11T02:30:54.724Z,42.17
2019-05-11T02:33:43.168Z,42.50
2019-05-11T02:36:31.269Z,43.80
2019-05-11T02:39:19.624Z,43.70
2019-05-11T02:42:07.641Z,42.20
2019-05-11T02:44:55.630Z,45.63
2019-05-11T02:47:43.846Z,42.50
2019-05-11T02:50:32.932Z,42.57
2019-05-11T02:53:21.408Z,44.20
2019-05-11T02:56:09.656Z,42.70
2019-05-11T02:58:57.960Z,40.50
2019-05-11T03:01:45.535Z,43.70
2019-05-11T03:04:33.328Z,44.93
2019-05-11T03:07:21.716Z,44.53
2019-05-11T03:10:09.710Z,42.67
2019-05-11T03:12:58.167Z,47.50
2019-05-11T03:15:46.752Z,44.90
2019-05-11T03:18:34.420Z,45.27
2019-05-11T03:21:21.914Z,45.10
2019-05-11T03:24:09.884Z,46.80
2019-05-11T03:26:58.037Z,44.70
2019-05-11T03:29:46.266Z,45.87
2019-05-11T03:32:34.439Z,46.30
2019-05-11T03:35:22.844Z,45.73
2019-05-11T03:38:11.195Z,46.60
2019-05-11T03:40:58.697Z,45.13
2019-05-11T03:43:46.851Z,47.97
2019-05-11T03:46:35.831Z,46.80
2019-05-11T03:49:23.944Z,43.73
2019-05-11T03:52:11.945Z,45.40
2019-05-11T03:55:00.323Z,44.27
2019-05-11T03:57:49.042Z,48.07
2019-05-11T04:00:37.304Z,46.50
2019-05-11T04:03:25.603Z,46.07
2019-05-11T04:06:14.000Z,47.03
2019-05-11T04:09:02.595Z,48.13
2019-05-11T04:11:50.854Z,45.83
2019-05-11T04:14:39.016Z,49.10
2019-05-11T04:17:26.755Z,47.57
2019-05-11T04:20:15.169Z,49.63
2019-05-11T04:23:03.338Z,47.67
2019-05-11T04:25:51.556Z,49.90
2019-05-11T04:28:39.305Z,47.37
2019-05-11T04:31:27.176Z,49.23
2019-05-11T04:34:15.535Z,48.47
2019-05-11T04:37:03.123Z,49.87
2019-05-11T04:39:51.899Z,51.40
2019-05-11T04:42:54.450Z,50.40
2019-05-11T04:45:30.264Z,48.90
2019-05-11T04:48:18.435Z,51.37
2019-05-11T04:51:06.116Z,50.57
2019-05-11T04:53:54.264Z,52.17
2019-05-11T04:56:42.195Z,48.80
2019-05-11T04:59:30.343Z,51.63
2019-05-11T05:02:18.050Z,50.23
2019-05-11T05:05:05.876Z,50.30
2019-05-11T05:08:07.437Z,49.97
2019-05-11T05:10:43.204Z,48.70
2019-05-11T05:13:31.613Z,46.80
2019-05-11T05:16:19.770Z,48.50
2019-05-11T05:19:08.268Z,51.20
2019-05-11T05:21:57.120Z,49.00
2019-05-11T05:24:45.348Z,47.97
2019-05-11T05:27:33.970Z,51.27
2019-05-11T05:30:21.890Z,49.53
2019-05-11T05:33:10.277Z,48.83
2019-05-11T05:35:57.776Z,48.50
2019-05-11T05:38:46.032Z,52.40
2019-05-11T05:41:35.317Z,48.13
2019-05-11T05:44:27.121Z,49.90
2019-05-11T05:47:13.051Z,47.20
2019-05-11T05:50:01.352Z,46.10
2019-05-11T05:52:49.882Z,46.43
2019-05-11T05:55:37.916Z,44.03
2019-05-11T05:58:25.441Z,42.40
2019-05-11T06:01:13.654Z,44.97
2019-05-11T06:04:02.108Z,46.13
2019-05-11T06:06:49.615Z,42.43
2019-05-11T06:09:37.823Z,42.97
2019-05-11T06:12:25.690Z,41.57
2019-05-11T06:15:14.003Z,42.80
2019-05-11T06:18:02.262Z,40.50
2019-05-11T06:20:50.247Z,39.53
2019-05-11T06:23:37.748Z,38.23
2019-05-11T06:26:25.519Z,37.77
2019-05-11T06:29:13.497Z,36.93
2019-05-11T06:32:01.834Z,35.70
2019-05-11T06:34:49.670Z,34.57
2019-05-11T06:37:37.167Z,31.47
2019-05-11T06:40:28.390Z,31.27
2019-05-11T06:43:14.389Z,31.20
2019-05-11T06:46:02.105Z,29.97
2019-05-11T06:48:50.119Z,29.67
2019-05-11T06:51:40.389Z,28.63
2019-05-11T06:54:27.674Z,29.10
2019-05-11T06:57:15.390Z,28.93
2019-05-11T07:00:04.303Z,27.50
2019-05-11T07:02:52.567Z,27.93
2019-05-11T07:05:40.740Z,25.37
2019-05-11T07:08:29.395Z,25.43
2019-05-11T07:11:17.778Z,24.90
2019-05-11T07:14:19.790Z,23.90
2019-05-11T07:16:55.861Z,24.73
2019-05-11T07:19:47.359Z,23.30
2019-05-11T07:22:33.239Z,23.53
2019-05-11T07:25:21.596Z,25.30
2019-05-11T07:28:10.296Z,23.70
2019-05-11T07:30:58.616Z,23.27
2019-05-11T07:33:48.659Z,24.27
2019-05-11T07:36:38.593Z,22.70
2019-05-11T07:39:27.788Z,23.07
2019-05-11T07:42:17.867Z,26.30
2019-05-11T07:45:05.511Z,25.37
2019-05-11T07:47:53.600Z,25.60
2019-05-11T07:50:41.171Z,26.37
2019-05-11T07:53:28.871Z,24.60
2019-05-11T07:56:18.721Z,24.97
2019-05-11T07:59:07.958Z,23.40
2019-05-11T08:01:58.152Z,24.47
2019-05-11T08:04:45.339Z,23.53
2019-05-11T08:07:33.727Z,24.47
2019-05-11T08:10:21.677Z,24.93
2019-05-11T08:13:09.982Z,23.40
2019-05-11T08:15:57.995Z,22.40
2019-05-11T08:18:48.197Z,24.10
2019-05-11T08:21:35.655Z,22.37
2019-05-11T08:24:23.428Z,21.57
2019-05-11T08:27:12.004Z,21.83
2019-05-11T08:30:00.302Z,22.90
2019-05-11T08:32:49.289Z,22.73
2019-05-11T08:35:38.962Z,21.07
2019-05-11T08:38:28.634Z,21.70
2019-05-11T08:41:18.441Z,21.33
2019-05-11T08:44:08.942Z,20.13
2019-05-11T08:46:58.215Z,20.03
2019-05-11T08:49:48.480Z,20.80
2019-05-11T08:52:38.642Z,20.60
2019-05-11T08:55:28.932Z,21.33
2019-05-11T08:58:19.446Z,20.00
2019-05-11T09:01:08.775Z,20.33
2019-05-11T09:03:58.350Z,20.47
2019-05-11T09:06:48.131Z,21.03
2019-05-11T09:09:37.919Z,19.03
2019-05-11T09:12:25.708Z,18.90
2019-05-11T09:15:30.020Z,19.97
2019-05-11T09:18:04.370Z,18.70
2019-05-11T09:20:51.996Z,17.77
2019-05-11T09:23:40.905Z,19.00
2019-05-11T09:26:28.827Z,17.37
2019-05-11T09:29:17.999Z,17.90
2019-05-11T09:32:05.639Z,19.27
2019-05-11T09:34:53.703Z,19.60
2019-05-11T09:37:42.174Z,18.93
2019-05-11T09:40:30.047Z,18.00
2019-05-11T09:43:18.055Z,17.80
2019-05-11T09:46:08.274Z,18.03
2019-05-11T09:48:58.925Z,18.90
2019-05-11T09:51:48.265Z,20.17
2019-05-11T09:54:38.171Z,20.03
2019-05-11T09:57:27.643Z,19.80
2019-05-11T10:00:17.936Z,19.00
2019-05-11T10:03:08.214Z,19.57
2019-05-11T10:05:57.961Z,18.80
2019-05-11T10:08:48.453Z,20.37
2019-05-11T10:11:35.559Z,19.53
2019-05-11T10:14:23.498Z,19.40
2019-05-11T10:17:11.593Z,19.07
2019-05-11T10:19:59.991Z,20.40
2019-05-11T10:22:48.745Z,19.50
2019-05-11T10:25:39.064Z,21.70
2019-05-11T10:28:28.426Z,20.93
2019-05-11T10:31:18.161Z,20.47
2019-05-11T10:34:08.653Z,20.93
2019-05-11T10:36:57.936Z,20.70
2019-05-11T10:39:45.872Z,21.40
2019-05-11T10:42:34.000Z,21.73
2019-05-11T10:45:22.475Z,21.67
2019-05-11T10:48:10.603Z,22.23
2019-05-11T10:50:59.291Z,21.10
2019-05-11T10:53:51.705Z,19.33
2019-05-11T10:56:38.818Z,19.17
2019-05-11T10:59:28.239Z,18.93
2019-05-11T11:02:18.520Z,19.30
2019-05-11T11:05:08.083Z,16.27
2019-05-11T11:07:58.822Z,14.87
2019-05-11T11:10:48.394Z,13.50
2019-05-11T11:13:38.678Z,13.33
2019-05-11T11:16:36.980Z,15.33
2019-05-11T11:19:18.175Z,16.17
2019-05-11T11:22:29.362Z,15.67
2019-05-11T11:24:55.418Z,18.17
2019-05-11T11:27:43.955Z,22.23
2019-05-11T11:30:32.286Z,22.80
2019-05-11T11:33:20.316Z,26.10
2019-05-11T11:36:08.644Z,23.50
2019-05-11T11:38:58.199Z,22.63
2019-05-11T11:41:45.598Z,21.00
2019-05-11T11:44:33.283Z,18.93
2019-05-11T11:47:21.852Z,17.60
2019-05-11T11:50:10.495Z,16.50
2019-05-11T11:52:58.899Z,14.83
2019-05-11T11:55:48.156Z,12.80
2019-05-11T11:58:38.110Z,11.87
2019-05-11T12:01:28.064Z,10.37
2019-05-11T12:04:18.635Z,10.50
2019-05-11T12:07:05.843Z,8.37
2019-05-11T12:09:53.363Z,8.97
2019-05-11T12:12:41.779Z,8.47
2019-05-11T12:15:30.019Z,8.10
2019-05-11T12:18:18.487Z,7.63
2019-05-11T12:21:07.986Z,7.43
2019-05-11T12:23:58.484Z,8.50
2019-05-11T12:26:48.016Z,7.50
2019-05-11T12:29:38.387Z,6.77
2019-05-11T12:32:32.915Z,6.90
2019-05-11T12:35:20.735Z,6.50
2019-05-11T12:38:09.206Z,7.20
2019-05-11T12:40:57.985Z,7.07
2019-05-11T12:43:48.904Z,7.40
2019-05-11T12:46:39.391Z,7.93
2019-05-11T12:49:28.983Z,7.20
2019-05-11T12:52:18.503Z,7.67
2019-05-11T12:55:08.546Z,7.50
2019-05-11T12:57:58.025Z,8.90
2019-05-11T13:00:47.963Z,7.10
2019-05-11T13:03:38.617Z,7.83
2019-05-11T13:06:27.914Z,7.50
2019-05-11T13:09:18.335Z,7.70
2019-05-11T13:12:08.021Z,8.20
2019-05-11T13:14:57.894Z,7.73
2019-05-11T13:17:45.755Z,6.80
2019-05-11T13:20:34.176Z,7.50
2019-05-11T13:23:22.218Z,6.50
2019-05-11T13:26:13.294Z,6.50
2019-05-11T13:28:59.379Z,6.90
2019-05-11T13:31:48.659Z,6.77
2019-05-11T13:34:38.720Z,6.00
2019-05-11T13:37:28.316Z,5.77
2019-05-11T13:40:18.506Z,6.27
2019-05-11T13:43:08.300Z,5.80
2019-05-11T13:45:58.234Z,7.87
2019-05-11T13:48:47.719Z,6.50
2019-05-11T13:51:35.362Z,6.60
2019-05-11T13:54:23.245Z,6.33
2019-05-11T13:57:11.327Z,5.63
2019-05-11T13:59:59.797Z,6.20
2019-05-11T14:02:48.468Z,6.70
2019-05-11T14:05:37.851Z,6.83
2019-05-11T14:08:27.767Z,7.60
2019-05-11T14:11:17.905Z,7.07
2019-05-11T14:14:05.166Z,7.50
2019-05-11T14:16:53.522Z,6.60
2019-05-11T14:19:41.720Z,7.40
2019-05-11T14:22:30.247Z,7.80
2019-05-11T14:25:18.890Z,7.83
2019-05-11T14:28:08.892Z,7.37
2019-05-11T14:30:57.956Z,6.60
2019-05-11T14:33:45.855Z,7.00
2019-05-11T14:36:34.220Z,6.67
2019-05-11T14:39:22.003Z,6.13
2019-05-11T14:42:10.079Z,6.33
2019-05-11T14:44:59.171Z,6.77
2019-05-11T14:47:47.888Z,7.90
2019-05-11T14:50:38.633Z,8.43
2019-05-11T14:53:28.214Z,7.20
2019-05-11T14:56:15.208Z,9.33
2019-05-11T14:59:03.123Z,7.37
2019-05-11T15:01:51.551Z,7.73
2019-05-11T15:04:40.007Z,7.97
2019-05-11T15:07:28.536Z,15.63
2019-05-11T15:10:18.738Z,8.13
2019-05-11T15:13:08.035Z,7.53
2019-05-11T15:15:58.700Z,7.97
2019-05-11T15:18:48.542Z,7.73
2019-05-11T15:21:38.695Z,7.90
2019-05-11T15:24:28.824Z,6.27
2019-05-11T15:27:18.409Z,6.80
2019-05-11T15:30:08.042Z,7.73
2019-05-11T15:32:58.060Z,7.03
2019-05-11T15:35:47.914Z,7.10
2019-05-11T15:38:37.928Z,6.20
2019-05-11T15:41:28.059Z,7.00
2019-05-11T15:44:18.065Z,6.63
2019-05-11T15:47:07.617Z,7.00
2019-05-11T15:49:54.891Z,6.67
2019-05-11T15:52:42.480Z,7.00
2019-05-11T15:55:30.090Z,6.93
2019-05-11T15:58:21.437Z,6.20
2019-05-11T16:01:07.943Z,7.00
2019-05-11T16:03:58.176Z,6.50
2019-05-11T16:06:45.683Z,7.10
2019-05-11T16:09:33.128Z,7.13
2019-05-11T16:12:21.655Z,7.00
2019-05-11T16:15:12.117Z,6.07
2019-05-11T16:18:00.202Z,5.60
2019-05-11T16:20:50.283Z,4.33
2019-05-11T16:23:39.053Z,4.00
2019-05-11T16:26:28.102Z,3.80
2019-05-11T16:29:18.544Z,4.07
2019-05-11T16:32:08.238Z,3.33
2019-05-11T16:34:57.630Z,4.60
2019-05-11T16:37:45.491Z,4.00
2019-05-11T16:40:33.033Z,3.63
2019-05-11T16:43:21.660Z,2.83
2019-05-11T16:46:09.522Z,3.10
2019-05-11T16:48:58.000Z,2.70
2019-05-11T16:51:46.438Z,2.93
2019-05-11T16:54:34.877Z,3.07
2019-05-11T16:57:23.358Z,3.83
2019-05-11T17:00:11.810Z,3.17
2019-05-11T17:02:59.895Z,2.90
2019-05-11T17:05:48.658Z,2.80
2019-05-11T17:08:38.420Z,2.80
2019-05-11T17:11:28.800Z,2.77
2019-05-11T17:14:18.606Z,2.50
2019-05-11T17:17:08.191Z,2.53
2019-05-11T17:19:58.791Z,2.87
2019-05-11T17:22:47.960Z,2.70
2019-05-11T17:25:37.953Z,2.30
2019-05-11T17:28:26.468Z,2.50
2019-05-11T17:31:14.403Z,2.30
2019-05-11T17:34:02.506Z,2.50
2019-05-11T17:36:50.326Z,2.10
2019-05-11T17:39:38.760Z,2.80
2019-05-11T17:42:26.504Z,2.03
2019-05-11T17:45:14.661Z,2.50
2019-05-11T17:48:03.161Z,2.80
2019-05-11T17:50:51.903Z,3.20
2019-05-11T17:53:40.147Z,3.07
2019-05-11T17:56:28.223Z,2.33
2019-05-11T17:59:16.395Z,2.70
2019-05-11T18:02:04.056Z,3.00
2019-05-11T18:04:52.749Z,2.53
2019-05-11T18:07:41.154Z,2.60
2019-05-11T18:10:29.363Z,2.10
2019-05-11T18:13:17.379Z,2.70
2019-05-11T18:16:08.399Z,2.30
2019-05-11T18:18:56.037Z,2.23
2019-05-11T18:21:44.302Z,3.10
2019-05-11T18:24:32.707Z,2.57
2019-05-11T18:27:20.971Z,2.70
2019-05-11T18:30:09.683Z,2.10
2019-05-11T18:32:59.378Z,2.30
2019-05-11T18:35:47.875Z,1.87
2019-05-11T18:38:37.993Z,2.00
2019-05-11T18:41:28.148Z,2.53
2019-05-11T18:44:15.584Z,1.93
2019-05-11T18:47:04.111Z,2.70
2019-05-11T18:49:51.928Z,3.40
2019-05-11T18:52:39.735Z,3.00
2019-05-11T18:55:28.174Z,2.53
2019-05-11T18:58:18.514Z,2.00
2019-05-11T19:01:05.431Z,2.80
2019-05-11T19:03:53.847Z,2.40
2019-05-11T19:06:41.995Z,2.30
2019-05-11T19:09:30.151Z,2.17
2019-05-11T19:12:18.914Z,1.97
2019-05-11T19:15:07.800Z,2.40
2019-05-11T19:17:58.103Z,1.90
2019-05-11T19:20:49.247Z,2.00
2019-05-11T19:23:37.890Z,2.23
2019-05-11T19:26:25.555Z,2.37
2019-05-11T19:29:14.115Z,2.50
2019-05-11T19:32:01.861Z,2.20
2019-05-11T19:34:50.236Z,2.60
2019-05-11T19:37:38.838Z,2.00
2019-05-11T19:40:26.808Z,1.80
2019-05-11T19:43:14.383Z,2.40
2019-05-11T19:46:02.801Z,2.20
2019-05-11T19:48:51.253Z,2.37
2019-05-11T19:51:42.315Z,2.70
2019-05-11T19:54:29.523Z,2.33
2019-05-11T19:57:18.112Z,1.97
2019-05-11T20:00:07.906Z,2.17
2019-05-11T20:02:58.388Z,2.30
2019-05-11T20:05:45.743Z,2.03
2019-05-11T20:08:34.420Z,2.50
2019-05-11T20:11:22.583Z,2.17
2019-05-11T20:14:10.830Z,2.57
2019-05-11T20:16:59.459Z,2.03
2019-05-11T20:19:49.039Z,2.83
2019-05-11T20:22:39.027Z,2.57
2019-05-11T20:25:28.784Z,2.27
2019-05-11T20:28:18.302Z,2.20
2019-05-11T20:31:08.056Z,1.97
2019-05-11T20:33:56.398Z,2.57
2019-05-11T20:36:44.794Z,2.90
2019-05-11T20:39:33.251Z,3.40
2019-05-11T20:42:21.824Z,2.77
2019-05-11T20:45:10.015Z,1.93
2019-05-11T20:47:57.509Z,2.20
2019-05-11T20:50:45.102Z,2.03
2019-05-11T20:53:33.373Z,2.20
2019-05-11T20:56:21.899Z,2.53
2019-05-11T20:59:10.121Z,2.27
2019-05-11T21:01:58.938Z,3.30
2019-05-11T21:04:49.011Z,2.70
2019-05-11T21:07:38.486Z,3.27
2019-05-11T21:10:28.150Z,3.47
2019-05-11T21:13:17.948Z,2.97
2019-05-11T21:16:08.637Z,3.00
2019-05-11T21:18:58.037Z,2.33
2019-05-11T21:21:53.235Z,2.10
2019-05-11T21:24:36.266Z,2.27
2019-05-11T21:27:24.833Z,2.40
2019-05-11T21:30:14.395Z,3.33
2019-05-11T21:33:02.367Z,2.43
2019-05-11T21:35:50.362Z,2.80
2019-05-11T21:38:38.713Z,2.57
2019-05-11T21:41:30.539Z,3.60
2019-05-11T21:44:18.854Z,2.43
2019-05-11T21:47:07.693Z,2.20
2019-05-11T21:49:57.788Z,2.90
2019-05-11T21:52:48.298Z,2.40
2019-05-11T21:55:37.799Z,2.63
2019-05-11T21:58:25.567Z,2.50
2019-05-11T22:01:13.992Z,3.07
2019-05-11T22:04:01.731Z,3.10
2019-05-11T22:06:49.903Z,2.70
2019-05-11T22:09:38.508Z,3.30
2019-05-11T22:12:27.992Z,2.53
2019-05-11T22:15:16.891Z,3.33
2019-05-11T22:18:07.815Z,3.23
2019-05-11T22:20:54.935Z,2.87
2019-05-11T22:23:42.970Z,2.87
2019-05-11T22:26:31.195Z,2.60
2019-05-11T22:29:19.121Z,3.17
2019-05-11T22:32:07.562Z,2.80
2019-05-11T22:34:55.294Z,2.70
2019-05-11T22:37:43.502Z,3.10
2019-05-11T22:40:31.886Z,2.90
2019-05-11T22:43:20.100Z,4.13
2019-05-11T22:46:07.932Z,3.17
2019-05-11T22:48:58.108Z,2.33
2019-05-11T22:51:45.727Z,2.80
2019-05-11T22:54:33.403Z,3.23
2019-05-11T22:57:21.518Z,2.97
2019-05-11T23:00:10.660Z,2.87
2019-05-11T23:02:58.787Z,3.27
2019-05-11T23:05:47.737Z,2.90
2019-05-11T23:08:36.050Z,2.97
2019-05-11T23:11:24.073Z,3.87
2019-05-11T23:14:11.872Z,2.83
2019-05-11T23:16:59.895Z,3.03
2019-05-11T23:19:48.668Z,3.37
2019-05-11T23:22:56.668Z,2.83
2019-05-11T23:25:36.553Z,3.73
2019-05-11T23:28:24.711Z,3.40
2019-05-11T23:31:13.183Z,3.87
2019-05-11T23:34:01.680Z,3.83
2019-05-11T23:36:49.946Z,3.47
2019-05-11T23:39:38.744Z,4.07
2019-05-11T23:42:28.858Z,3.20
2019-05-11T23:45:18.876Z,4.00
2019-05-11T23:48:06.890Z,3.60
2019-05-11T23:50:54.780Z,3.37
2019-05-11T23:53:43.335Z,4.27
2019-05-11T23:56:31.530Z,3.00
2019-05-11T23:59:19.436Z,3.83
